Weather at Gabrovnitsa Air Base [CLOSED]

Public forecast

Using degrees Celsius for public forecast. Weather courtesy of forecast.io.

Closest aviation weather report (METAR) to Gabrovnitsa Air Base

Closest report is Sofia Airport, 51.3 nm (95.0 km) S.

2024/07/24 06:00 (retrieved 37 minutes ago)

LBSF 240600Z VRB02KT CAVOK 20/16 Q1014 NOSIG

Closest aviation forecast (TAF) to Gabrovnitsa Air Base

Closest forecast is Sofia Airport, 51.3 nm (95.0 km) S.

2024/07/24 06:18 (retrieved 19 minutes ago)

TAF LBSF 240500Z 2406/2506 VRB04KT 9999 SCT060 BECMG 2408/2410 07010KT TEMPO 2410/2420 3000 TSRA SCT030CB BKN040 BECMG 2420/2421 VRB04KT PROB30 TEMPO 2423/2503 5000 TSRA FEW030CB BKN040